sensor_id;sensor_type;location;lat;lon;timestamp;P1;durP1;ratioP1;P2;durP2;ratioP2
18168;SDS011;49877;50.398;30.324;2022-12-18T02:33:04;33.30;;;19.80;;
18168;SDS011;49877;50.398;30.324;2022-12-18T02:35:34;31.70;;;19.60;;
18168;SDS011;49877;50.398;30.324;2022-12-18T02:38:04;33.57;;;19.63;;
18168;SDS011;49877;50.398;30.324;2022-12-18T02:40:31;27.17;;;17.73;;
18168;SDS011;49877;50.398;30.324;2022-12-18T02:43:02;28.37;;;17.47;;
18168;SDS011;49877;50.398;30.324;2022-12-18T02:45:29;27.33;;;17.80;;
18168;SDS011;49877;50.398;30.324;2022-12-18T02:47:57;25.10;;;16.70;;
18168;SDS011;49877;50.398;30.324;2022-12-18T02:50:26;24.20;;;15.60;;
18168;SDS011;49877;50.398;30.324;2022-12-18T02:53:01;25.93;;;16.20;;
18168;SDS011;49877;50.398;30.324;2022-12-18T02:55:39;25.40;;;16.67;;
18168;SDS011;49877;50.398;30.324;2022-12-18T02:58:20;25.57;;;16.20;;
18168;SDS011;49877;50.398;30.324;2022-12-18T03:00:51;25.17;;;15.93;;
18168;SDS011;49877;50.398;30.324;2022-12-18T03:03:25;25.83;;;16.00;;
18168;SDS011;49877;50.398;30.324;2022-12-18T03:05:58;26.47;;;16.83;;
18168;SDS011;49877;50.398;30.324;2022-12-18T03:08:31;26.30;;;16.70;;
18168;SDS011;49877;50.398;30.324;2022-12-18T03:11:03;26.23;;;16.77;;
18168;SDS011;49877;50.398;30.324;2022-12-18T03:13:32;24.40;;;15.77;;
18168;SDS011;49877;50.398;30.324;2022-12-18T03:16:01;25.20;;;15.73;;
18168;SDS011;49877;50.398;30.324;2022-12-18T03:18:33;25.53;;;16.07;;
18168;SDS011;49877;50.398;30.324;2022-12-18T03:21:06;26.53;;;16.63;;
18168;SDS011;49877;50.398;30.324;2022-12-18T03:23:36;26.23;;;16.83;;
18168;SDS011;49877;50.398;30.324;2022-12-18T03:26:10;26.63;;;16.17;;
18168;SDS011;49877;50.398;30.324;2022-12-18T03:28:42;25.63;;;16.27;;
18168;SDS011;49877;50.398;30.324;2022-12-18T03:31:12;25.00;;;16.53;;
18168;SDS011;49877;50.398;30.324;2022-12-18T03:33:40;26.87;;;16.23;;
18168;SDS011;49877;50.398;30.324;2022-12-18T03:36:13;27.40;;;16.13;;
18168;SDS011;49877;50.398;30.324;2022-12-18T03:38:40;24.73;;;16.07;;
18168;SDS011;49877;50.398;30.324;2022-12-18T03:41:08;25.67;;;16.93;;
18168;SDS011;49877;50.398;30.324;2022-12-18T03:43:43;23.90;;;15.43;;
18168;SDS011;49877;50.398;30.324;2022-12-18T03:46:17;23.23;;;16.00;;
18168;SDS011;49877;50.398;30.324;2022-12-18T03:48:51;22.50;;;15.13;;
18168;SDS011;49877;50.398;30.324;2022-12-18T03:51:28;24.90;;;15.73;;
18168;SDS011;49877;50.398;30.324;2022-12-18T03:54:01;22.83;;;15.03;;
18168;SDS011;49877;50.398;30.324;2022-12-18T03:56:30;21.47;;;15.47;;
18168;SDS011;49877;50.398;30.324;2022-12-18T03:58:59;22.43;;;15.33;;
18168;SDS011;49877;50.398;30.324;2022-12-18T04:01:30;23.60;;;15.60;;
18168;SDS011;49877;50.398;30.324;2022-12-18T04:03:59;21.43;;;14.43;;
18168;SDS011;49877;50.398;30.324;2022-12-18T04:06:29;20.63;;;14.27;;
18168;SDS011;49877;50.398;30.324;2022-12-18T04:09:03;22.23;;;14.53;;
18168;SDS011;49877;50.398;30.324;2022-12-18T04:11:30;22.17;;;14.83;;
18168;SDS011;49877;50.398;30.324;2022-12-18T04:13:57;25.73;;;15.77;;
18168;SDS011;49877;50.398;30.324;2022-12-18T04:16:24;21.83;;;15.13;;
18168;SDS011;49877;50.398;30.324;2022-12-18T04:18:51;24.03;;;15.80;;
18168;SDS011;49877;50.398;30.324;2022-12-18T04:21:19;23.67;;;16.17;;
18168;SDS011;49877;50.398;30.324;2022-12-18T04:23:47;24.03;;;15.17;;
18168;SDS011;49877;50.398;30.324;2022-12-18T04:26:14;23.50;;;14.73;;
18168;SDS011;49877;50.398;30.324;2022-12-18T04:28:41;25.40;;;15.50;;
18168;SDS011;49877;50.398;30.324;2022-12-18T04:31:08;22.27;;;14.67;;
18168;SDS011;49877;50.398;30.324;2022-12-18T04:33:35;23.83;;;14.97;;
18168;SDS011;49877;50.398;30.324;2022-12-18T04:36:02;22.97;;;14.90;;
18168;SDS011;49877;50.398;30.324;2022-12-18T04:38:29;21.33;;;15.23;;
18168;SDS011;49877;50.398;30.324;2022-12-18T04:40:57;22.67;;;15.03;;
18168;SDS011;49877;50.398;30.324;2022-12-18T04:43:23;24.33;;;15.63;;
18168;SDS011;49877;50.398;30.324;2022-12-18T04:45:50;24.60;;;15.37;;
18168;SDS011;49877;50.398;30.324;2022-12-18T04:48:17;26.70;;;15.63;;
18168;SDS011;49877;50.398;30.324;2022-12-18T04:50:45;24.93;;;16.13;;
18168;SDS011;49877;50.398;30.324;2022-12-18T04:53:12;23.20;;;15.33;;
18168;SDS011;49877;50.398;30.324;2022-12-18T04:55:39;23.27;;;14.80;;
18168;SDS011;49877;50.398;30.324;2022-12-18T04:58:07;25.13;;;15.07;;
18168;SDS011;49877;50.398;30.324;2022-12-18T05:00:34;23.73;;;15.20;;
18168;SDS011;49877;50.398;30.324;2022-12-18T05:03:01;23.37;;;15.20;;
18168;SDS011;49877;50.398;30.324;2022-12-18T05:05:28;23.03;;;14.77;;
18168;SDS011;49877;50.398;30.324;2022-12-18T05:07:55;23.90;;;15.97;;
18168;SDS011;49877;50.398;30.324;2022-12-18T05:10:21;26.50;;;15.83;;
18168;SDS011;49877;50.398;30.324;2022-12-18T05:12:48;23.70;;;15.60;;
18168;SDS011;49877;50.398;30.324;2022-12-18T05:15:33;24.03;;;14.90;;
18168;SDS011;49877;50.398;30.324;2022-12-18T05:18:00;24.50;;;15.47;;
18168;SDS011;49877;50.398;30.324;2022-12-18T05:20:28;24.07;;;15.50;;
18168;SDS011;49877;50.398;30.324;2022-12-18T05:22:55;23.13;;;15.33;;
18168;SDS011;49877;50.398;30.324;2022-12-18T05:25:22;23.07;;;14.53;;
18168;SDS011;49877;50.398;30.324;2022-12-18T05:27:49;24.50;;;15.23;;
18168;SDS011;49877;50.398;30.324;2022-12-18T05:30:16;23.83;;;15.13;;
18168;SDS011;49877;50.398;30.324;2022-12-18T05:32:44;23.63;;;14.80;;
18168;SDS011;49877;50.398;30.324;2022-12-18T05:35:11;21.33;;;14.00;;
18168;SDS011;49877;50.398;30.324;2022-12-18T05:37:38;21.90;;;14.30;;
18168;SDS011;49877;50.398;30.324;2022-12-18T05:40:05;22.20;;;14.50;;
18168;SDS011;49877;50.398;30.324;2022-12-18T05:42:33;21.70;;;14.20;;
18168;SDS011;49877;50.398;30.324;2022-12-18T05:45:00;24.13;;;15.50;;
18168;SDS011;49877;50.398;30.324;2022-12-18T05:47:26;20.80;;;13.60;;
18168;SDS011;49877;50.398;30.324;2022-12-18T05:49:55;23.53;;;14.53;;
18168;SDS011;49877;50.398;30.324;2022-12-18T05:52:22;20.90;;;13.57;;
18168;SDS011;49877;50.398;30.324;2022-12-18T05:54:49;21.70;;;13.20;;
18168;SDS011;49877;50.398;30.324;2022-12-18T05:57:16;22.67;;;13.80;;
18168;SDS011;49877;50.398;30.324;2022-12-18T05:59:43;19.40;;;13.10;;
18168;SDS011;49877;50.398;30.324;2022-12-18T06:02:10;23.23;;;13.50;;
18168;SDS011;49877;50.398;30.324;2022-12-18T06:04:36;21.73;;;14.10;;
18168;SDS011;49877;50.398;30.324;2022-12-18T06:07:05;18.37;;;12.47;;
18168;SDS011;49877;50.398;30.324;2022-12-18T06:09:31;21.30;;;13.43;;
18168;SDS011;49877;50.398;30.324;2022-12-18T06:11:58;21.83;;;13.43;;
18168;SDS011;49877;50.398;30.324;2022-12-18T06:14:25;21.73;;;14.13;;
18168;SDS011;49877;50.398;30.324;2022-12-18T06:16:52;20.33;;;13.27;;
18168;SDS011;49877;50.398;30.324;2022-12-18T10:13:18;20.33;;;12.40;;
18168;SDS011;49877;50.398;30.324;2022-12-18T10:15:53;19.27;;;12.37;;
18168;SDS011;49877;50.398;30.324;2022-12-18T10:18:29;18.90;;;12.13;;
18168;SDS011;49877;50.398;30.324;2022-12-18T10:21:17;17.93;;;11.37;;
18168;SDS011;49877;50.398;30.324;2022-12-18T10:23:48;17.43;;;11.30;;
18168;SDS011;49877;50.398;30.324;2022-12-18T10:26:24;18.10;;;12.20;;
18168;SDS011;49877;50.398;30.324;2022-12-18T10:28:53;18.17;;;11.10;;
18168;SDS011;49877;50.398;30.324;2022-12-18T10:31:22;16.83;;;10.90;;
18168;SDS011;49877;50.398;30.324;2022-12-18T10:33:50;17.33;;;12.10;;
18168;SDS011;49877;50.398;30.324;2022-12-18T10:36:19;15.03;;;10.67;;
18168;SDS011;49877;50.398;30.324;2022-12-18T10:38:46;18.30;;;11.70;;
18168;SDS011;49877;50.398;30.324;2022-12-18T10:41:23;15.90;;;10.60;;
18168;SDS011;49877;50.398;30.324;2022-12-18T10:44:10;16.43;;;11.70;;
18168;SDS011;49877;50.398;30.324;2022-12-18T10:46:38;17.40;;;11.57;;
18168;SDS011;49877;50.398;30.324;2022-12-18T10:49:05;17.13;;;11.33;;
18168;SDS011;49877;50.398;30.324;2022-12-18T10:51:45;19.83;;;12.90;;
18168;SDS011;49877;50.398;30.324;2022-12-18T10:54:14;18.73;;;12.07;;
18168;SDS011;49877;50.398;30.324;2022-12-18T10:56:43;15.27;;;10.50;;
18168;SDS011;49877;50.398;30.324;2022-12-18T10:59:12;17.13;;;11.33;;
18168;SDS011;49877;50.398;30.324;2022-12-18T11:01:46;19.57;;;12.40;;
18168;SDS011;49877;50.398;30.324;2022-12-18T11:04:17;19.43;;;11.80;;
18168;SDS011;49877;50.398;30.324;2022-12-18T11:06:55;15.37;;;10.23;;
18168;SDS011;49877;50.398;30.324;2022-12-18T11:09:24;17.53;;;11.90;;
18168;SDS011;49877;50.398;30.324;2022-12-18T11:11:53;20.33;;;13.43;;
18168;SDS011;49877;50.398;30.324;2022-12-18T11:14:24;22.47;;;13.73;;
18168;SDS011;49877;50.398;30.324;2022-12-18T11:16:52;15.90;;;11.10;;
18168;SDS011;49877;50.398;30.324;2022-12-18T11:19:28;24.00;;;15.63;;
18168;SDS011;49877;50.398;30.324;2022-12-18T11:21:58;20.83;;;12.87;;
18168;SDS011;49877;50.398;30.324;2022-12-18T11:24:27;20.57;;;13.17;;
18168;SDS011;49877;50.398;30.324;2022-12-18T11:26:57;18.63;;;12.33;;
18168;SDS011;49877;50.398;30.324;2022-12-18T11:29:31;17.13;;;11.87;;
18168;SDS011;49877;50.398;30.324;2022-12-18T11:34:53;17.23;;;10.90;;
18168;SDS011;49877;50.398;30.324;2022-12-18T11:37:27;15.63;;;10.60;;
18168;SDS011;49877;50.398;30.324;2022-12-18T11:39:55;16.80;;;10.70;;
18168;SDS011;49877;50.398;30.324;2022-12-18T11:42:27;14.53;;;10.40;;
18168;SDS011;49877;50.398;30.324;2022-12-18T11:45:02;16.67;;;10.77;;
18168;SDS011;49877;50.398;30.324;2022-12-18T11:47:44;18.53;;;11.27;;
18168;SDS011;49877;50.398;30.324;2022-12-18T11:50:19;14.33;;;10.23;;
18168;SDS011;49877;50.398;30.324;2022-12-18T11:52:49;15.27;;;10.30;;
18168;SDS011;49877;50.398;30.324;2022-12-18T11:55:18;15.60;;;10.93;;
18168;SDS011;49877;50.398;30.324;2022-12-18T11:58:00;18.20;;;11.23;;
18168;SDS011;49877;50.398;30.324;2022-12-18T12:00:35;15.93;;;11.40;;
18168;SDS011;49877;50.398;30.324;2022-12-18T12:06:26;16.17;;;10.63;;
18168;SDS011;49877;50.398;30.324;2022-12-18T12:09:05;15.40;;;10.40;;
18168;SDS011;49877;50.398;30.324;2022-12-18T12:11:44;16.70;;;11.23;;
18168;SDS011;49877;50.398;30.324;2022-12-18T12:14:22;17.97;;;10.03;;
18168;SDS011;49877;50.398;30.324;2022-12-18T12:16:58;16.33;;;10.20;;
18168;SDS011;49877;50.398;30.324;2022-12-18T12:19:39;17.43;;;11.20;;
18168;SDS011;49877;50.398;30.324;2022-12-18T12:22:14;16.47;;;10.83;;
18168;SDS011;49877;50.398;30.324;2022-12-18T12:24:52;15.90;;;11.23;;
18168;SDS011;49877;50.398;30.324;2022-12-18T12:27:30;16.60;;;10.60;;
18168;SDS011;49877;50.398;30.324;2022-12-18T12:30:07;18.37;;;12.37;;
18168;SDS011;49877;50.398;30.324;2022-12-18T12:32:40;17.77;;;11.53;;
18168;SDS011;49877;50.398;30.324;2022-12-18T12:35:22;15.67;;;10.43;;
18168;SDS011;49877;50.398;30.324;2022-12-18T12:38:01;16.30;;;10.97;;
18168;SDS011;49877;50.398;30.324;2022-12-18T12:40:34;18.60;;;11.30;;
18168;SDS011;49877;50.398;30.324;2022-12-18T12:43:05;17.60;;;11.70;;
18168;SDS011;49877;50.398;30.324;2022-12-18T12:45:42;15.30;;;10.80;;
18168;SDS011;49877;50.398;30.324;2022-12-18T12:48:17;19.00;;;11.73;;
18168;SDS011;49877;50.398;30.324;2022-12-18T12:50:51;17.67;;;11.43;;
18168;SDS011;49877;50.398;30.324;2022-12-18T12:53:22;17.73;;;11.90;;
18168;SDS011;49877;50.398;30.324;2022-12-18T12:55:52;24.50;;;15.90;;
18168;SDS011;49877;50.398;30.324;2022-12-18T12:58:21;16.93;;;11.57;;
18168;SDS011;49877;50.398;30.324;2022-12-18T13:00:57;17.20;;;11.77;;
18168;SDS011;49877;50.398;30.324;2022-12-18T13:03:40;18.43;;;12.00;;
18168;SDS011;49877;50.398;30.324;2022-12-18T13:06:13;19.03;;;12.93;;
18168;SDS011;49877;50.398;30.324;2022-12-18T13:08:53;18.90;;;12.47;;
18168;SDS011;49877;50.398;30.324;2022-12-18T13:11:30;19.00;;;12.60;;
18168;SDS011;49877;50.398;30.324;2022-12-18T13:14:22;17.00;;;11.50;;
18168;SDS011;49877;50.398;30.324;2022-12-18T13:16:51;19.73;;;12.47;;
18168;SDS011;49877;50.398;30.324;2022-12-18T13:19:40;20.17;;;11.93;;
18168;SDS011;49877;50.398;30.324;2022-12-18T13:22:12;17.60;;;12.33;;
18168;SDS011;49877;50.398;30.324;2022-12-18T13:24:48;19.43;;;12.33;;
18168;SDS011;49877;50.398;30.324;2022-12-18T13:36:26;14.57;;;9.60;;
18168;SDS011;49877;50.398;30.324;2022-12-18T13:48:17;15.23;;;8.90;;
18168;SDS011;49877;50.398;30.324;2022-12-18T19:16:01;24.63;;;15.63;;
18168;SDS011;49877;50.398;30.324;2022-12-18T19:18:29;20.10;;;13.40;;
18168;SDS011;49877;50.398;30.324;2022-12-18T19:20:56;19.20;;;12.83;;
18168;SDS011;49877;50.398;30.324;2022-12-18T19:23:24;22.80;;;14.07;;
18168;SDS011;49877;50.398;30.324;2022-12-18T19:25:52;21.77;;;13.63;;
18168;SDS011;49877;50.398;30.324;2022-12-18T19:28:20;19.63;;;12.87;;
18168;SDS011;49877;50.398;30.324;2022-12-18T19:30:50;22.30;;;14.03;;
18168;SDS011;49877;50.398;30.324;2022-12-18T19:33:19;19.60;;;12.73;;
18168;SDS011;49877;50.398;30.324;2022-12-18T19:35:46;20.67;;;13.60;;
18168;SDS011;49877;50.398;30.324;2022-12-18T19:38:13;21.13;;;13.83;;
18168;SDS011;49877;50.398;30.324;2022-12-18T19:40:40;18.97;;;12.73;;
18168;SDS011;49877;50.398;30.324;2022-12-18T19:43:07;17.93;;;12.80;;
18168;SDS011;49877;50.398;30.324;2022-12-18T19:45:34;21.63;;;13.70;;
18168;SDS011;49877;50.398;30.324;2022-12-18T19:48:02;20.63;;;12.87;;
18168;SDS011;49877;50.398;30.324;2022-12-18T19:50:30;20.43;;;14.20;;
18168;SDS011;49877;50.398;30.324;2022-12-18T19:52:57;18.77;;;12.70;;
18168;SDS011;49877;50.398;30.324;2022-12-18T19:55:24;19.77;;;12.70;;
18168;SDS011;49877;50.398;30.324;2022-12-18T19:57:51;19.83;;;12.30;;
18168;SDS011;49877;50.398;30.324;2022-12-18T20:00:18;17.77;;;11.70;;
18168;SDS011;49877;50.398;30.324;2022-12-18T20:02:45;18.77;;;12.00;;
18168;SDS011;49877;50.398;30.324;2022-12-18T20:05:12;20.50;;;12.83;;
18168;SDS011;49877;50.398;30.324;2022-12-18T20:07:40;18.37;;;12.93;;
18168;SDS011;49877;50.398;30.324;2022-12-18T20:10:07;19.97;;;13.07;;
18168;SDS011;49877;50.398;30.324;2022-12-18T20:12:39;20.23;;;13.23;;
18168;SDS011;49877;50.398;30.324;2022-12-18T20:15:06;23.10;;;15.83;;
18168;SDS011;49877;50.398;30.324;2022-12-18T20:17:34;20.37;;;13.10;;
18168;SDS011;49877;50.398;30.324;2022-12-18T20:20:00;18.27;;;12.20;;
18168;SDS011;49877;50.398;30.324;2022-12-18T20:22:27;18.80;;;12.57;;
18168;SDS011;49877;50.398;30.324;2022-12-18T20:24:55;22.30;;;13.40;;
18168;SDS011;49877;50.398;30.324;2022-12-18T20:27:22;19.87;;;13.33;;
18168;SDS011;49877;50.398;30.324;2022-12-18T20:29:49;18.70;;;11.77;;
18168;SDS011;49877;50.398;30.324;2022-12-18T20:32:16;18.20;;;12.10;;
18168;SDS011;49877;50.398;30.324;2022-12-18T20:34:42;20.93;;;13.23;;
18168;SDS011;49877;50.398;30.324;2022-12-18T20:37:09;22.30;;;13.33;;
18168;SDS011;49877;50.398;30.324;2022-12-18T20:39:36;19.37;;;13.63;;
18168;SDS011;49877;50.398;30.324;2022-12-18T20:42:04;20.60;;;13.07;;
18168;SDS011;49877;50.398;30.324;2022-12-18T20:44:31;16.60;;;11.40;;
18168;SDS011;49877;50.398;30.324;2022-12-18T20:46:58;19.83;;;13.27;;
18168;SDS011;49877;50.398;30.324;2022-12-18T20:49:26;18.70;;;12.83;;
